RJSC(METAR)
06/26 09:00
METAR RJSC 260000Z 30003KT 220V020 9999 FEW040 23/18 Q1015 RMK
1CU040 A2998=
戻る
トップページへ戻る
IMOC Co,.Ltd.